Time;durP1;ratioP1;P1;durP2;ratioP2;P2;SDS_P1;SDS_P2;PMS_P1;PMS_P2;Temp;Humidity;BMP_temperature;BMP_pressure;BME280_temperature;BME280_humidity;BME280_pressure;Samples;Min_cycle;Max_cycle;Signal;HPM_P1;HPM_P2
2023/06/13 00:01:04;;;;;;;5.43;4.88;;;20.40;97.60;;;;;;5093607;28;20316;-61
2023/06/13 00:03:33;;;;;;;8.48;4.70;;;20.30;97.80;;;;;;5096200;28;20243;-61
2023/06/13 00:06:02;;;;;;;8.50;4.97;;;20.30;97.90;;;;;;5085509;28;20212;-60
2023/06/13 00:08:31;;;;;;;7.60;4.82;;;20.20;98.20;;;;;;5094163;28;20309;-61
2023/06/13 00:10:59;;;;;;;7.03;4.57;;;20.20;98.60;;;;;;5094014;28;20299;-59
2023/06/13 00:13:27;;;;;;;9.55;5.00;;;20.10;98.70;;;;;;5093957;28;20204;-61
2023/06/13 00:15:58;;;;;;;9.23;5.00;;;20.00;99.00;;;;;;5090761;28;20240;-61
2023/06/13 00:18:29;;;;;;;6.07;4.75;;;20.00;99.30;;;;;;5081593;28;20269;-60
2023/06/13 00:20:58;;;;;;;7.32;4.95;;;19.90;99.40;;;;;;5093219;28;20224;-61
2023/06/13 00:23:26;;;;;;;6.18;4.57;;;19.90;99.50;;;;;;5093658;28;20239;-61
2023/06/13 00:25:54;;;;;;;7.45;5.47;;;19.80;99.60;;;;;;5088459;28;20266;-60
2023/06/13 00:28:22;;;;;;;9.60;5.10;;;19.80;99.80;;;;;;5088481;28;20259;-60
2023/06/13 00:30:51;;;;;;;7.63;4.50;;;19.80;99.90;;;;;;5093409;28;20250;-61
2023/06/13 00:33:21;;;;;;;11.10;4.88;;;19.70;99.90;;;;;;5093462;28;20204;-60
2023/06/13 00:35:48;;;;;;;6.50;4.93;;;19.60;99.90;;;;;;5093282;28;20235;-59
2023/06/13 00:38:20;;;;;;;5.85;4.68;;;19.60;99.90;;;;;;5093409;28;20232;-61
2023/06/13 00:40:49;;;;;;;10.27;5.18;;;19.50;99.90;;;;;;5093271;28;20591;-60
2023/06/13 00:43:17;;;;;;;6.90;5.32;;;19.50;99.90;;;;;;5079260;28;20235;-61
2023/06/13 00:45:45;;;;;;;8.93;5.43;;;19.40;99.90;;;;;;5072865;28;20243;-61
2023/06/13 00:48:13;;;;;;;6.00;4.85;;;19.30;99.90;;;;;;5081273;28;20672;-61
2023/06/13 00:50:44;;;;;;;4.72;4.32;;;19.20;99.90;;;;;;5090615;28;20202;-60
2023/06/13 00:53:17;;;;;;;5.72;5.20;;;19.20;99.90;;;;;;5093083;28;20214;-60
2023/06/13 00:55:46;;;;;;;6.88;5.20;;;19.10;99.90;;;;;;5092508;28;20728;-60
2023/06/13 00:58:13;;;;;;;5.32;4.85;;;19.10;99.90;;;;;;5091920;28;20234;-61
2023/06/13 01:00:43;;;;;;;6.38;4.95;;;19.10;99.90;;;;;;5088644;28;20319;-60
2023/06/13 01:03:15;;;;;;;6.88;5.03;;;19.00;99.90;;;;;;5086359;28;20279;-60
2023/06/13 01:05:45;;;;;;;8.18;4.93;;;19.00;99.90;;;;;;5092589;28;20212;-60
2023/06/13 01:08:14;;;;;;;5.95;5.40;;;18.90;99.90;;;;;;5092665;28;20230;-60
2023/06/13 01:10:42;;;;;;;5.90;5.18;;;18.90;99.90;;;;;;5092932;28;20225;-60
2023/06/13 01:13:14;;;;;;;7.07;5.28;;;18.80;99.90;;;;;;5093030;28;20282;-61
2023/06/13 01:15:45;;;;;;;10.90;5.30;;;18.70;99.90;;;;;;5092283;28;20698;-60
2023/06/13 01:18:13;;;;;;;5.80;4.82;;;18.70;99.90;;;;;;5092549;28;20711;-60
2023/06/13 01:20:41;;;;;;;6.68;4.75;;;18.60;99.90;;;;;;5092386;28;20251;-61
2023/06/13 01:23:18;;;;;;;8.88;5.30;;;18.50;99.90;;;;;;5092820;28;20249;-61
2023/06/13 01:25:52;;;;;;;5.10;4.53;;;18.50;99.90;;;;;;5092350;28;20638;-60
2023/06/13 01:28:22;;;;;;;6.18;5.00;;;18.50;99.90;;;;;;5092501;28;20650;-60
2023/06/13 01:30:50;;;;;;;5.10;4.45;;;18.40;99.90;;;;;;5092236;28;20576;-61
2023/06/13 01:33:18;;;;;;;7.55;5.10;;;18.40;99.90;;;;;;5092274;28;20750;-60
2023/06/13 01:35:46;;;;;;;5.88;5.22;;;18.30;99.90;;;;;;5091998;28;20757;-60
2023/06/13 01:38:14;;;;;;;8.77;4.93;;;18.20;99.90;;;;;;5092436;28;20266;-60
2023/06/13 01:40:42;;;;;;;4.95;4.53;;;18.20;99.90;;;;;;5092214;28;20312;-61
2023/06/13 01:43:10;;;;;;;8.27;4.55;;;18.10;99.90;;;;;;5079344;28;20284;-60
2023/06/13 01:45:39;;;;;;;5.97;5.28;;;18.10;99.90;;;;;;5071633;28;20637;-60
2023/06/13 01:48:10;;;;;;;6.28;5.05;;;18.00;99.90;;;;;;5071818;28;20225;-61
2023/06/13 01:50:46;;;;;;;9.55;5.03;;;18.00;99.90;;;;;;5071371;28;20292;-59
2023/06/13 01:53:19;;;;;;;6.03;4.40;;;18.00;99.90;;;;;;5072093;28;20240;-61
2023/06/13 01:55:51;;;;;;;6.80;5.10;;;17.90;99.90;;;;;;5071600;28;20291;-61
2023/06/13 01:58:22;;;;;;;5.47;5.07;;;17.90;99.90;;;;;;5071509;28;20263;-60
2023/06/13 02:00:55;;;;;;;8.25;5.18;;;17.90;99.90;;;;;;5071618;28;20221;-60
2023/06/13 02:03:24;;;;;;;4.97;4.45;;;17.80;99.90;;;;;;5071892;28;20205;-61
2023/06/13 02:05:52;;;;;;;11.65;4.85;;;17.70;99.90;;;;;;5071513;28;20230;-60
2023/06/13 02:08:20;;;;;;;4.93;4.47;;;17.70;99.90;;;;;;5071518;28;20232;-60
2023/06/13 02:10:48;;;;;;;5.03;4.63;;;17.70;99.90;;;;;;5071431;28;20231;-60
2023/06/13 02:13:16;;;;;;;5.78;4.63;;;17.60;99.90;;;;;;5071917;28;20243;-60
2023/06/13 02:15:44;;;;;;;5.35;4.93;;;17.50;99.90;;;;;;5071419;28;20239;-60
2023/06/13 02:18:15;;;;;;;5.53;5.03;;;17.50;99.90;;;;;;5074422;28;20225;-60
2023/06/13 02:20:43;;;;;;;4.90;4.60;;;17.50;99.90;;;;;;5080500;28;20695;-59
2023/06/13 02:23:12;;;;;;;5.38;4.60;;;17.50;99.90;;;;;;5091871;28;20251;-59
2023/06/13 02:25:41;;;;;;;10.68;5.30;;;17.50;99.90;;;;;;5091450;28;20200;-59
2023/06/13 02:28:09;;;;;;;5.05;4.55;;;17.40;99.90;;;;;;5084823;28;20274;-60
2023/06/13 02:30:37;;;;;;;5.13;4.68;;;17.40;99.90;;;;;;5088863;28;20549;-61
2023/06/13 02:33:05;;;;;;;7.57;4.72;;;17.40;99.90;;;;;;5091678;28;20364;-60
2023/06/13 02:35:35;;;;;;;5.35;4.65;;;17.40;99.90;;;;;;5091449;28;20295;-59
2023/06/13 02:38:06;;;;;;;6.63;4.60;;;17.30;99.90;;;;;;5089988;28;20264;-61
2023/06/13 02:40:34;;;;;;;7.00;4.95;;;17.30;99.90;;;;;;5079829;28;20623;-62
2023/06/13 02:43:02;;;;;;;6.45;5.38;;;17.20;99.90;;;;;;5080081;28;20200;-60
2023/06/13 02:45:30;;;;;;;11.20;4.80;;;17.20;99.90;;;;;;5071076;28;20292;-62
2023/06/13 02:47:58;;;;;;;5.40;4.90;;;17.20;99.90;;;;;;5070203;28;20205;-61
2023/06/13 02:50:26;;;;;;;8.13;4.97;;;17.10;99.90;;;;;;5079447;28;20251;-60
2023/06/13 02:52:55;;;;;;;6.75;5.03;;;17.00;99.90;;;;;;5090784;28;20675;-61
2023/06/13 02:55:24;;;;;;;5.35;4.95;;;17.00;99.90;;;;;;5091361;28;20208;-61
2023/06/13 02:57:52;;;;;;;5.00;4.57;;;17.00;99.90;;;;;;5091444;28;20204;-63
2023/06/13 03:00:20;;;;;;;6.85;4.70;;;17.00;99.90;;;;;;5091505;28;20678;-62
2023/06/13 03:02:48;;;;;;;5.63;5.05;;;16.90;99.90;;;;;;5086221;28;20260;-59
2023/06/13 03:05:16;;;;;;;4.82;4.45;;;17.00;99.90;;;;;;5082658;28;20644;-62
2023/06/13 03:07:46;;;;;;;8.68;4.85;;;16.90;99.90;;;;;;5091100;28;20676;-62
2023/06/13 03:10:15;;;;;;;5.80;4.50;;;16.90;99.90;;;;;;5091470;28;20215;-61
2023/06/13 03:12:44;;;;;;;5.75;4.78;;;16.90;99.90;;;;;;5091176;28;20200;-60
2023/06/13 03:15:12;;;;;;;5.07;4.53;;;16.80;99.90;;;;;;5090999;28;20706;-61
2023/06/13 03:17:40;;;;;;;9.23;4.88;;;16.80;99.90;;;;;;5091058;28;20655;-62
2023/06/13 03:20:09;;;;;;;5.20;4.68;;;16.80;99.90;;;;;;5092147;28;20208;-61
2023/06/13 03:22:37;;;;;;;5.22;4.72;;;16.80;99.90;;;;;;5094738;28;20232;-60
2023/06/13 03:25:05;;;;;;;7.22;4.70;;;16.70;99.90;;;;;;5094871;28;20283;-61
2023/06/13 03:27:35;;;;;;;5.53;4.32;;;16.80;99.90;;;;;;5094789;28;20200;-60
2023/06/13 03:30:04;;;;;;;6.05;4.35;;;16.80;99.90;;;;;;5094520;28;20604;-61
2023/06/13 03:32:32;;;;;;;6.55;4.80;;;16.70;99.90;;;;;;5085060;28;20283;-62
2023/06/13 03:35:00;;;;;;;6.50;4.35;;;16.70;99.90;;;;;;5086139;28;20723;-60
2023/06/13 03:37:28;;;;;;;7.70;4.90;;;16.80;99.90;;;;;;5094658;28;20644;-63
2023/06/13 03:39:55;;;;;;;4.60;4.20;;;16.70;99.90;;;;;;5094419;28;20270;-62
2023/06/13 03:42:23;;;;;;;6.25;4.40;;;16.70;99.90;;;;;;5088031;28;20221;-62
2023/06/13 03:44:52;;;;;;;4.93;4.47;;;16.70;99.90;;;;;;5073889;28;20303;-61
2023/06/13 03:47:20;;;;;;;7.18;4.43;;;16.70;99.90;;;;;;5074340;28;20205;-60
2023/06/13 03:49:48;;;;;;;6.93;4.50;;;16.70;99.90;;;;;;5074169;28;20282;-62
2023/06/13 03:52:16;;;;;;;6.57;4.70;;;16.70;99.90;;;;;;5074140;28;20208;-61
2023/06/13 03:54:44;;;;;;;4.22;3.90;;;16.70;99.90;;;;;;5073838;28;20689;-62
2023/06/13 03:57:12;;;;;;;4.78;4.38;;;16.80;99.90;;;;;;5073457;28;20240;-62
2023/06/13 03:59:40;;;;;;;5.10;4.30;;;16.80;99.90;;;;;;5081885;28;20341;-61
2023/06/13 04:02:12;;;;;;;4.57;4.13;;;16.80;99.90;;;;;;5082160;28;20311;-62
2023/06/13 04:04:42;;;;;;;5.60;4.25;;;16.80;99.90;;;;;;5084396;28;20208;-60
2023/06/13 04:07:10;;;;;;;6.15;4.70;;;16.80;99.90;;;;;;5086962;28;20204;-61
2023/06/13 04:09:38;;;;;;;5.15;4.38;;;16.80;99.90;;;;;;5093861;28;20311;-61
2023/06/13 04:12:06;;;;;;;5.18;4.40;;;16.80;99.90;;;;;;5094044;28;20291;-62
2023/06/13 04:14:34;;;;;;;6.75;4.70;;;16.90;99.90;;;;;;5093966;28;20208;-61
2023/06/13 04:17:03;;;;;;;8.63;4.00;;;16.90;99.90;;;;;;5091685;28;20204;-62
2023/06/13 04:19:32;;;;;;;6.78;4.60;;;16.90;99.90;;;;;;5085338;28;20224;-62
2023/06/13 04:22:01;;;;;;;6.63;4.53;;;16.90;99.90;;;;;;5093557;28;20709;-62
2023/06/13 04:24:31;;;;;;;4.50;4.10;;;16.90;99.90;;;;;;5093864;28;20214;-62
2023/06/13 04:27:00;;;;;;;5.43;4.00;;;16.90;99.90;;;;;;5085275;28;20201;-60
2023/06/13 04:29:28;;;;;;;5.88;4.38;;;16.90;99.90;;;;;;5072547;28;20252;-61
2023/06/13 04:31:56;;;;;;;4.70;3.92;;;17.00;99.90;;;;;;5080030;28;20217;-63
2023/06/13 04:34:24;;;;;;;5.88;4.30;;;17.00;99.90;;;;;;5075009;28;20205;-60
2023/06/13 04:36:56;;;;;;;5.32;4.45;;;17.00;99.90;;;;;;5077003;28;20213;-61
2023/06/13 04:39:25;;;;;;;6.78;4.18;;;17.10;99.90;;;;;;5076826;28;20256;-62
2023/06/13 04:41:55;;;;;;;5.63;4.82;;;17.10;99.90;;;;;;5072955;28;20228;-63
2023/06/13 04:44:25;;;;;;;8.20;4.60;;;17.20;99.90;;;;;;5081792;28;20283;-64
2023/06/13 04:46:57;;;;;;;7.22;4.20;;;17.20;99.90;;;;;;5080919;28;20671;-61
2023/06/13 04:49:27;;;;;;;5.78;4.18;;;17.30;99.90;;;;;;5075661;28;20259;-62
2023/06/13 04:51:57;;;;;;;4.63;4.22;;;17.30;99.90;;;;;;5082542;28;20196;-62
2023/06/13 04:54:25;;;;;;;9.70;4.60;;;17.40;99.90;;;;;;5088406;28;20226;-58
2023/06/13 04:56:54;;;;;;;6.07;4.03;;;17.40;99.90;;;;;;5092802;28;20248;-62
2023/06/13 04:59:22;;;;;;;4.90;4.40;;;17.40;99.90;;;;;;5092940;28;20235;-62
2023/06/13 05:01:51;;;;;;;4.32;4.00;;;17.50;99.90;;;;;;5092745;28;20620;-62
2023/06/13 05:04:19;;;;;;;3.63;3.42;;;17.50;99.90;;;;;;5093032;28;20216;-60
2023/06/13 05:06:47;;;;;;;4.53;4.10;;;17.60;99.90;;;;;;5092074;28;20208;-62
2023/06/13 05:09:17;;;;;;;7.30;3.88;;;17.60;99.90;;;;;;5092792;28;20224;-62
2023/06/13 05:11:45;;;;;;;6.00;4.03;;;17.70;99.90;;;;;;5092550;28;20813;-62
2023/06/13 05:14:13;;;;;;;5.28;4.38;;;17.70;99.90;;;;;;5092413;28;20200;-61
2023/06/13 05:16:41;;;;;;;4.10;3.80;;;17.70;99.90;;;;;;5092041;28;20203;-60
2023/06/13 05:19:09;;;;;;;7.22;4.50;;;17.70;99.90;;;;;;5092199;28;20310;-60
2023/06/13 05:21:37;;;;;;;10.45;5.32;;;17.90;99.90;;;;;;5092389;28;20670;-59
2023/06/13 05:24:07;;;;;;;7.18;4.28;;;18.20;99.90;;;;;;5092437;28;20227;-59
2023/06/13 05:26:36;;;;;;;6.95;4.47;;;18.70;99.90;;;;;;5091858;28;20200;-58
2023/06/13 05:29:05;;;;;;;5.80;4.10;;;19.00;99.90;;;;;;5092654;28;20259;-60
2023/06/13 05:31:33;;;;;;;9.35;4.85;;;19.30;99.90;;;;;;5092491;28;20230;-59
2023/06/13 05:34:01;;;;;;;5.40;4.07;;;19.40;99.90;;;;;;5092477;28;20576;-59
2023/06/13 05:36:29;;;;;;;6.93;3.88;;;19.60;99.90;;;;;;5091921;28;20282;-60
2023/06/13 05:38:57;;;;;;;10.80;4.18;;;19.70;99.90;;;;;;5091587;28;20223;-62
2023/06/13 05:41:25;;;;;;;7.85;4.20;;;19.80;99.90;;;;;;5067895;28;20708;-59
2023/06/13 05:43:54;;;;;;;7.13;3.83;;;19.90;99.90;;;;;;5077824;28;20669;-59
2023/06/13 05:46:22;;;;;;;5.75;3.70;;;20.00;99.90;;;;;;5083512;28;20286;-61
2023/06/13 05:48:50;;;;;;;4.95;3.70;;;20.00;99.90;;;;;;5092081;28;20678;-60
2023/06/13 05:51:18;;;;;;;5.97;3.95;;;20.10;99.90;;;;;;5091751;28;20890;-59
2023/06/13 05:53:46;;;;;;;3.55;3.25;;;20.10;99.90;;;;;;5091992;28;20208;-59
2023/06/13 05:56:14;;;;;;;4.93;3.90;;;20.10;99.90;;;;;;5091918;28;20229;-59
2023/06/13 05:58:42;;;;;;;8.05;3.83;;;20.20;99.90;;;;;;5111397;22;20323;-59
2023/06/13 06:01:11;;;;;;;4.60;4.03;;;20.30;99.90;;;;;;5071559;28;20299;-59
2023/06/13 06:03:39;;;;;;;5.72;3.30;;;20.30;99.90;;;;;;5071485;28;20220;-59
2023/06/13 06:06:08;;;;;;;6.10;3.88;;;20.30;99.90;;;;;;5071039;28;20295;-59
2023/06/13 06:08:35;;;;;;;3.92;3.55;;;20.40;99.90;;;;;;5071165;28;20236;-59
2023/06/13 06:11:03;;;;;;;3.95;3.13;;;20.30;99.90;;;;;;5071427;28;20734;-59
2023/06/13 06:13:31;;;;;;;5.53;3.67;;;20.30;99.90;;;;;;5071576;28;20228;-59
2023/06/13 06:15:59;;;;;;;5.80;3.97;;;20.30;99.90;;;;;;5071152;28;20658;-58
2023/06/13 06:18:28;;;;;;;6.82;3.50;;;20.30;99.90;;;;;;5071135;28;20244;-59
2023/06/13 06:20:56;;;;;;;5.22;3.55;;;20.30;99.90;;;;;;5071361;28;20200;-59
2023/06/13 06:23:24;;;;;;;6.35;3.38;;;20.20;99.90;;;;;;5071529;28;20358;-58
2023/06/13 06:25:52;;;;;;;6.40;3.83;;;20.10;99.90;;;;;;5071401;28;20257;-59
2023/06/13 06:28:20;;;;;;;8.25;4.30;;;19.90;99.90;;;;;;5071310;28;20641;-59
2023/06/13 06:30:48;;;;;;;14.30;4.75;;;19.80;99.90;;;;;;5071549;28;20200;-59
2023/06/13 06:33:16;;;;;;;9.65;3.65;;;19.70;99.90;;;;;;5071272;28;20293;-59
2023/06/13 06:35:45;;;;;;;12.25;4.22;;;19.60;99.90;;;;;;5071230;28;20209;-58
2023/06/13 06:38:13;;;;;;;3.30;3.03;;;19.60;99.90;;;;;;5071575;28;20291;-59
2023/06/13 06:40:41;;;;;;;10.15;3.60;;;19.50;99.90;;;;;;5071453;28;20287;-58
2023/06/13 06:43:09;;;;;;;6.25;3.90;;;19.60;99.90;;;;;;5071063;28;20747;-58
2023/06/13 06:45:37;;;;;;;7.63;3.17;;;19.70;99.90;;;;;;5071086;28;20204;-58
2023/06/13 06:48:05;;;;;;;9.13;4.30;;;19.80;99.90;;;;;;5071064;28;20219;-59
2023/06/13 06:50:33;;;;;;;6.85;4.13;;;19.90;99.90;;;;;;5071355;28;20228;-59
2023/06/13 06:53:02;;;;;;;5.03;3.13;;;20.00;99.90;;;;;;5071254;28;20237;-58
2023/06/13 06:55:30;;;;;;;10.02;4.25;;;20.10;99.90;;;;;;5072386;28;20204;-58
2023/06/13 06:57:58;;;;;;;11.88;4.63;;;20.10;99.90;;;;;;5075055;28;20299;-59
2023/06/13 07:00:26;;;;;;;9.32;4.07;;;20.20;99.90;;;;;;5074547;28;20322;-59
2023/06/13 07:02:54;;;;;;;9.57;4.60;;;20.30;99.90;;;;;;5073843;28;20581;-59
2023/06/13 07:05:22;;;;;;;6.28;3.58;;;20.30;99.90;;;;;;5073729;28;20205;-59
2023/06/13 07:07:50;;;;;;;9.45;3.80;;;20.40;99.90;;;;;;5074248;28;20228;-58
2023/06/13 07:10:19;;;;;;;3.40;3.10;;;20.50;99.90;;;;;;5073781;28;20248;-59
2023/06/13 07:12:47;;;;;;;5.47;3.03;;;20.60;99.90;;;;;;5073708;28;20200;-59
2023/06/13 07:15:15;;;;;;;4.32;3.30;;;20.60;99.90;;;;;;5074346;28;20204;-59
2023/06/13 07:17:43;;;;;;;5.28;3.40;;;20.60;99.90;;;;;;5074639;28;20299;-58
2023/06/13 07:20:12;;;;;;;5.97;3.08;;;20.70;99.90;;;;;;5074767;28;20232;-59
2023/06/13 07:22:40;;;;;;;7.15;3.58;;;20.80;99.90;;;;;;5074537;28;20236;-59
2023/06/13 07:25:08;;;;;;;7.60;3.67;;;20.80;99.90;;;;;;5074117;28;20251;-59
2023/06/13 07:27:38;;;;;;;5.43;3.42;;;20.80;99.90;;;;;;5074223;28;20205;-58
2023/06/13 07:30:06;;;;;;;7.30;3.58;;;20.90;99.90;;;;;;5074504;28;20232;-59
2023/06/13 07:32:34;;;;;;;3.35;3.15;;;20.90;99.90;;;;;;5074406;28;20204;-57
2023/06/13 07:35:03;;;;;;;3.83;3.53;;;21.00;99.90;;;;;;5074220;28;20201;-59
2023/06/13 07:37:34;;;;;;;3.78;3.47;;;21.10;99.90;;;;;;5072550;28;20209;-59
2023/06/13 07:40:04;;;;;;;4.20;3.13;;;21.20;99.90;;;;;;5072437;28;20229;-59
2023/06/13 07:42:31;;;;;;;7.70;3.20;;;21.20;99.90;;;;;;5072500;28;20284;-58
2023/06/13 07:45:01;;;;;;;10.77;3.55;;;21.20;99.90;;;;;;5072324;28;20239;-58
2023/06/13 07:47:29;;;;;;;4.65;3.20;;;21.30;99.90;;;;;;5072840;28;20663;-59
2023/06/13 07:49:57;;;;;;;4.97;3.15;;;21.40;99.90;;;;;;5072900;28;20262;-58
2023/06/13 07:52:24;;;;;;;4.40;3.20;;;21.50;99.90;;;;;;5073533;28;20205;-59
2023/06/13 07:54:52;;;;;;;5.82;3.17;;;21.50;99.90;;;;;;5074156;28;20291;-59
2023/06/13 07:57:20;;;;;;;3.42;2.97;;;21.60;99.90;;;;;;5074147;28;20300;-59
2023/06/13 07:59:51;;;;;;;2.65;2.55;;;21.60;99.90;;;;;;5073977;28;20311;-59
2023/06/13 08:02:20;;;;;;;3.40;2.67;;;21.70;99.90;;;;;;5073928;28;20295;-59
2023/06/13 08:04:49;;;;;;;3.30;2.90;;;21.90;99.90;;;;;;5073654;28;20224;-59
2023/06/13 08:07:21;;;;;;;6.85;3.25;;;22.00;99.90;;;;;;5073392;28;20789;-59
2023/06/13 08:09:49;;;;;;;3.60;2.42;;;22.10;99.90;;;;;;5073761;28;20776;-58
2023/06/13 08:12:17;;;;;;;3.75;3.17;;;22.10;99.90;;;;;;5073769;28;20267;-58
2023/06/13 08:14:45;;;;;;;3.55;3.13;;;22.10;99.90;;;;;;5073558;28;20562;-58
2023/06/13 08:17:13;;;;;;;3.70;2.45;;;22.20;99.90;;;;;;5073560;28;20812;-59
2023/06/13 08:19:48;;;;;;;3.65;3.17;;;22.30;99.90;;;;;;5073433;28;20662;-59
2023/06/13 08:22:17;;;;;;;3.13;2.78;;;22.50;99.90;;;;;;5073672;28;20234;-58
2023/06/13 08:24:45;;;;;;;4.93;2.90;;;22.70;99.10;;;;;;5073299;28;20229;-59
2023/06/13 08:27:14;;;;;;;3.10;2.80;;;22.60;99.40;;;;;;5073497;28;20576;-58
2023/06/13 08:29:43;;;;;;;7.28;3.42;;;22.70;99.30;;;;;;5072425;28;20311;-59
2023/06/13 08:32:11;;;;;;;7.28;2.80;;;22.70;98.70;;;;;;5070453;28;20205;-59
2023/06/13 08:34:39;;;;;;;2.90;2.70;;;22.80;99.90;;;;;;5070539;28;20288;-59
2023/06/13 08:37:08;;;;;;;5.10;3.05;;;22.90;97.90;;;;;;5072473;28;20205;-59
2023/06/13 08:39:36;;;;;;;3.83;3.15;;;22.90;99.60;;;;;;5072515;28;20268;-59
2023/06/13 08:42:07;;;;;;;5.63;3.38;;;23.00;97.60;;;;;;5071068;28;20208;-58
2023/06/13 08:44:34;;;;;;;3.90;3.28;;;23.00;98.30;;;;;;5071855;28;20312;-59
2023/06/13 08:47:03;;;;;;;8.10;2.90;;;23.00;97.50;;;;;;5072727;28;20658;-59
2023/06/13 08:49:31;;;;;;;4.65;3.60;;;23.10;97.60;;;;;;5072566;28;20221;-59
2023/06/13 08:51:59;;;;;;;4.30;3.30;;;23.30;98.30;;;;;;5072976;28;20211;-59
2023/06/13 08:54:28;;;;;;;5.40;3.47;;;23.40;96.80;;;;;;5071846;28;20526;-59
2023/06/13 08:56:56;;;;;;;5.30;3.47;;;23.40;96.20;;;;;;5071524;28;20719;-59
2023/06/13 08:59:26;;;;;;;8.88;3.03;;;23.50;97.80;;;;;;5072805;28;20240;-59
2023/06/13 09:01:54;;;;;;;6.78;3.42;;;23.70;98.10;;;;;;5072907;28;20208;-59
2023/06/13 09:04:23;;;;;;;6.85;2.95;;;23.80;98.50;;;;;;5072749;28;20286;-59
2023/06/13 09:06:51;;;;;;;3.30;3.10;;;24.00;96.80;;;;;;5072529;28;20204;-59
2023/06/13 09:09:19;;;;;;;3.97;3.13;;;24.10;96.60;;;;;;5072586;28;20315;-59
2023/06/13 09:11:49;;;;;;;3.13;2.92;;;24.10;95.80;;;;;;5072457;28;20621;-59
2023/06/13 09:14:19;;;;;;;4.28;3.28;;;24.10;95.20;;;;;;5072702;28;20200;-59
2023/06/13 09:16:48;;;;;;;5.00;3.13;;;24.20;96.40;;;;;;5072288;28;20247;-59
2023/06/13 09:19:16;;;;;;;4.22;3.45;;;24.40;97.60;;;;;;5071711;28;20228;-59
2023/06/13 09:21:44;;;;;;;7.05;2.95;;;24.60;95.90;;;;;;5072340;28;20205;-58
2023/06/13 09:24:13;;;;;;;5.22;3.42;;;24.70;96.90;;;;;;5072005;28;20240;-59
2023/06/13 09:26:41;;;;;;;4.53;3.33;;;24.90;93.90;;;;;;5072073;28;20664;-59
2023/06/13 09:29:10;;;;;;;7.07;2.63;;;25.00;93.30;;;;;;5072144;28;20307;-59
2023/06/13 09:31:50;;;;;;;5.93;3.13;;;25.10;91.50;;;;;;5072233;28;20254;-60
2023/06/13 09:34:18;;;;;;;3.08;2.97;;;25.10;89.20;;;;;;5072088;28;20582;-59
2023/06/13 09:36:45;;;;;;;4.63;3.47;;;25.20;88.00;;;;;;5071819;28;20685;-59
2023/06/13 09:39:13;;;;;;;3.00;2.80;;;25.30;90.20;;;;;;5071871;28;20734;-59
2023/06/13 09:41:42;;;;;;;4.75;2.95;;;25.50;90.50;;;;;;5071940;28;20200;-59
2023/06/13 09:44:11;;;;;;;3.22;2.95;;;25.70;90.30;;;;;;5071898;28;20239;-59
2023/06/13 09:46:39;;;;;;;3.03;2.92;;;25.90;87.20;;;;;;5071861;28;20232;-58
2023/06/13 09:49:07;;;;;;;3.92;3.20;;;26.10;89.60;;;;;;5071719;28;20750;-59
2023/06/13 09:51:37;;;;;;;5.15;2.88;;;26.10;82.30;;;;;;5072096;28;20200;-59
2023/06/13 09:54:05;;;;;;;5.00;2.95;;;26.10;84.70;;;;;;5072087;28;20283;-59
2023/06/13 09:56:33;;;;;;;6.07;2.85;;;26.40;86.50;;;;;;5071536;28;20644;-59
2023/06/13 09:59:01;;;;;;;3.00;2.80;;;26.60;88.70;;;;;;5071775;28;20377;-59
2023/06/13 10:01:34;;;;;;;3.97;3.25;;;26.90;83.80;;;;;;5071192;28;20236;-59
2023/06/13 10:04:05;;;;;;;4.22;2.95;;;27.10;85.40;;;;;;5071586;28;20766;-59
2023/06/13 10:06:33;;;;;;;4.13;3.10;;;27.20;82.90;;;;;;5071731;28;20256;-59
2023/06/13 10:09:01;;;;;;;8.70;3.05;;;27.30;84.30;;;;;;5071789;28;20232;-59
2023/06/13 10:11:30;;;;;;;3.33;3.13;;;27.40;83.70;;;;;;5071880;28;20215;-59
2023/06/13 10:14:00;;;;;;;3.80;2.88;;;27.60;80.90;;;;;;5072234;28;20231;-59
2023/06/13 10:16:35;;;;;;;6.60;3.50;;;27.70;83.10;;;;;;5071306;28;20211;-59
2023/06/13 10:19:02;;;;;;;4.97;3.05;;;27.90;81.50;;;;;;5063896;28;20251;-59
2023/06/13 10:21:30;;;;;;;4.07;3.15;;;27.90;78.60;;;;;;5071770;28;20236;-59
2023/06/13 10:24:17;;;;;;;5.13;2.85;;;28.00;79.20;;;;;;5071632;28;20232;-59
2023/06/13 10:26:46;;;;;;;4.25;3.05;;;28.10;76.60;;;;;;5071125;28;20220;-59
2023/06/13 10:29:47;;;;;;;4.53;3.40;;;28.30;77.10;;;;;;5072381;28;20775;-59
2023/06/13 10:32:36;;;;;;;4.63;2.90;;;28.60;78.00;;;;;;5075658;28;20283;-59
2023/06/13 10:35:20;;;;;;;3.40;3.20;;;28.70;73.20;;;;;;5073556;28;20668;-59
2023/06/13 10:38:33;;;;;;;4.22;3.47;;;28.70;71.70;;;;;;5075744;28;20211;-59
2023/06/13 10:41:23;;;;;;;7.25;3.10;;;28.80;72.60;;;;;;5064175;28;20247;-59
2023/06/13 10:43:54;;;;;;;7.10;3.30;;;29.10;71.50;;;;;;5074468;28;20201;-58
2023/06/13 10:46:22;;;;;;;4.90;3.03;;;29.30;73.50;;;;;;5074881;28;20750;-58
2023/06/13 10:48:52;;;;;;;4.03;3.05;;;29.50;73.30;;;;;;5075137;28;20224;-59
2023/06/13 10:51:20;;;;;;;3.45;3.08;;;29.60;70.60;;;;;;5075278;28;20204;-60
2023/06/13 10:53:57;;;;;;;3.22;3.00;;;29.70;69.50;;;;;;5074979;28;20717;-60
2023/06/13 10:56:29;;;;;;;5.28;2.80;;;29.90;70.00;;;;;;5074734;28;20222;-60
2023/06/13 10:59:03;;;;;;;3.70;3.40;;;30.10;66.90;;;;;;5075062;28;20236;-60
2023/06/13 11:01:31;;;;;;;4.85;3.38;;;30.20;66.70;;;;;;5075107;28;20204;-60
2023/06/13 11:04:08;;;;;;;13.25;3.53;;;30.20;65.00;;;;;;5074773;28;20208;-60
2023/06/13 11:06:36;;;;;;;8.43;3.80;;;30.00;66.30;;;;;;5073644;28;20302;-60
2023/06/13 11:09:20;;;;;;;3.55;3.28;;;30.10;67.00;;;;;;5073264;28;20315;-60
2023/06/13 11:11:50;;;;;;;3.55;3.35;;;30.10;62.50;;;;;;5074773;28;20208;-60
2023/06/13 11:14:20;;;;;;;2.97;2.67;;;30.30;65.90;;;;;;5074675;28;20208;-60
2023/06/13 11:16:48;;;;;;;5.80;3.40;;;30.20;64.60;;;;;;5074429;28;20236;-60
2023/06/13 11:19:19;;;;;;;7.75;3.65;;;30.40;62.50;;;;;;5074745;28;20263;-60
2023/06/13 11:21:47;;;;;;;4.63;3.00;;;30.80;65.00;;;;;;5074763;28;20208;-60
2023/06/13 11:24:15;;;;;;;5.97;3.00;;;30.90;62.50;;;;;;5073157;28;20204;-60
2023/06/13 11:26:47;;;;;;;11.45;3.17;;;31.00;63.30;;;;;;5074262;28;20220;-60
2023/06/13 11:29:14;;;;;;;7.88;3.40;;;31.10;61.10;;;;;;5074355;28;20229;-60
2023/06/13 11:31:42;;;;;;;6.97;3.08;;;31.40;62.30;;;;;;5074709;28;20200;-60
2023/06/13 11:34:15;;;;;;;3.95;3.10;;;31.10;58.50;;;;;;5074235;28;20204;-60
2023/06/13 11:36:45;;;;;;;5.38;3.15;;;30.80;59.10;;;;;;5074161;28;20227;-60
2023/06/13 11:39:14;;;;;;;4.85;3.20;;;31.00;62.90;;;;;;5074070;28;20737;-60
2023/06/13 11:41:42;;;;;;;3.50;3.05;;;31.40;62.10;;;;;;5073429;28;20232;-60
2023/06/13 11:44:10;;;;;;;5.25;3.00;;;31.90;60.80;;;;;;5074439;28;20288;-60
2023/06/13 11:46:44;;;;;;;4.93;3.10;;;32.20;59.10;;;;;;5073915;28;20228;-60
2023/06/13 11:49:13;;;;;;;4.50;3.10;;;32.40;60.90;;;;;;5074009;28;20773;-61
2023/06/13 11:51:41;;;;;;;2.97;2.78;;;32.40;58.50;;;;;;5074132;28;20266;-60
2023/06/13 11:54:11;;;;;;;5.90;3.00;;;32.20;56.60;;;;;;5073766;28;20216;-60
2023/06/13 11:56:50;;;;;;;3.47;3.17;;;32.10;56.30;;;;;;5074055;28;20253;-60
2023/06/13 11:59:19;;;;;;;4.88;3.00;;;31.60;54.60;;;;;;5086847;22;20219;-72
2023/06/13 12:01:52;;;;;;;3.88;3.50;;;31.50;57.90;;;;;;5091111;28;20275;-71
2023/06/13 12:04:20;;;;;;;11.48;3.28;;;32.00;57.80;;;;;;5090978;28;20208;-72
2023/06/13 12:06:48;;;;;;;3.75;3.10;;;32.30;57.90;;;;;;5090774;28;20220;-71
2023/06/13 12:09:17;;;;;;;3.17;2.97;;;32.70;59.00;;;;;;5070573;28;20204;-71
2023/06/13 12:11:45;;;;;;;3.42;3.13;;;32.70;55.60;;;;;;5070979;28;20209;-72
2023/06/13 12:14:16;;;;;;;8.90;3.33;;;32.70;56.40;;;;;;5070635;28;20201;-72
2023/06/13 12:16:44;;;;;;;3.15;2.95;;;32.80;54.30;;;;;;5070272;28;20573;-71
2023/06/13 12:19:12;;;;;;;3.30;3.10;;;33.10;55.90;;;;;;5070104;28;20232;-72
2023/06/13 12:21:40;;;;;;;3.00;2.80;;;33.40;54.50;;;;;;5070841;28;20220;-71
2023/06/13 12:24:09;;;;;;;5.88;3.13;;;33.40;54.60;;;;;;5070049;28;20213;-71
2023/06/13 12:26:41;;;;;;;3.40;2.88;;;33.20;52.00;;;;;;5069519;28;20216;-71
2023/06/13 12:29:11;;;;;;;7.25;3.25;;;32.70;52.20;;;;;;5070072;28;20240;-71
2023/06/13 12:31:42;;;;;;;3.28;3.00;;;32.40;52.30;;;;;;5069996;28;20670;-72
2023/06/13 12:34:13;;;;;;;3.33;3.17;;;32.40;54.30;;;;;;5070453;28;20242;-71
2023/06/13 12:36:44;;;;;;;3.13;2.92;;;32.70;52.70;;;;;;5069577;28;20240;-71
2023/06/13 12:39:14;;;;;;;7.82;3.45;;;33.00;53.20;;;;;;5070278;28;20232;-71
2023/06/13 12:41:47;;;;;;;3.17;2.88;;;33.20;53.30;;;;;;5070318;28;20224;-71
2023/06/13 12:44:15;;;;;;;3.17;3.05;;;33.20;51.30;;;;;;5069867;28;20251;-72
2023/06/13 12:46:43;;;;;;;4.38;2.92;;;33.20;52.00;;;;;;5069375;28;20674;-71
2023/06/13 12:49:11;;;;;;;8.43;3.13;;;33.20;51.80;;;;;;5068897;28;20228;-71
2023/06/13 12:51:43;;;;;;;6.00;3.10;;;32.90;51.90;;;;;;5070549;28;20246;-71
2023/06/13 12:54:12;;;;;;;4.40;3.47;;;33.00;53.80;;;;;;5069043;28;20199;-71
2023/06/13 12:56:51;;;;;;;2.92;2.80;;;33.30;52.90;;;;;;5069090;28;20621;-71